sensor_id;sensor_type;location;lat;lon;timestamp;pressure;altitude;pressure_sealevel;temperature;humidity
10606;BME280;5350;42.698;23.148;2023-10-08T00:01:38;94102.59;;;12.53;57.92
10606;BME280;5350;42.698;23.148;2023-10-08T00:04:08;94100.72;;;12.54;58.07
10606;BME280;5350;42.698;23.148;2023-10-08T00:06:36;94098.19;;;12.49;58.95
10606;BME280;5350;42.698;23.148;2023-10-08T00:09:03;94102.47;;;12.45;58.92
10606;BME280;5350;42.698;23.148;2023-10-08T00:11:35;94098.00;;;12.45;59.25
10606;BME280;5350;42.698;23.148;2023-10-08T00:14:03;94093.47;;;12.46;59.72
10606;BME280;5350;42.698;23.148;2023-10-08T00:16:30;94098.75;;;12.46;60.04
10606;BME280;5350;42.698;23.148;2023-10-08T00:18:59;94095.72;;;12.39;59.84
10606;BME280;5350;42.698;23.148;2023-10-08T00:21:33;94089.84;;;12.42;59.99
10606;BME280;5350;42.698;23.148;2023-10-08T00:24:01;94088.94;;;12.33;59.66
10606;BME280;5350;42.698;23.148;2023-10-08T00:26:32;94082.72;;;12.42;59.75
10606;BME280;5350;42.698;23.148;2023-10-08T00:29:03;94085.66;;;12.41;59.89
10606;BME280;5350;42.698;23.148;2023-10-08T00:31:34;94073.53;;;12.40;60.40
10606;BME280;5350;42.698;23.148;2023-10-08T00:34:06;94074.13;;;12.37;60.92
10606;BME280;5350;42.698;23.148;2023-10-08T00:36:37;94071.34;;;12.28;61.44
10606;BME280;5350;42.698;23.148;2023-10-08T00:39:04;94059.50;;;12.26;61.67
10606;BME280;5350;42.698;23.148;2023-10-08T00:41:34;94060.88;;;12.23;62.15
10606;BME280;5350;42.698;23.148;2023-10-08T00:44:07;94063.38;;;12.15;62.46
10606;BME280;5350;42.698;23.148;2023-10-08T00:46:34;94066.88;;;12.10;62.79
10606;BME280;5350;42.698;23.148;2023-10-08T00:49:05;94059.75;;;12.11;63.21
10606;BME280;5350;42.698;23.148;2023-10-08T00:51:50;94058.53;;;12.22;63.35
10606;BME280;5350;42.698;23.148;2023-10-08T00:54:26;94055.53;;;12.28;63.58
10606;BME280;5350;42.698;23.148;2023-10-08T00:56:59;94050.03;;;12.25;63.87
10606;BME280;5350;42.698;23.148;2023-10-08T00:59:31;94048.41;;;12.10;64.19
10606;BME280;5350;42.698;23.148;2023-10-08T01:02:07;94045.34;;;12.22;64.93
10606;BME280;5350;42.698;23.148;2023-10-08T01:04:40;94052.31;;;12.13;64.79
10606;BME280;5350;42.698;23.148;2023-10-08T01:07:10;94052.91;;;12.10;64.84
10606;BME280;5350;42.698;23.148;2023-10-08T01:09:41;94052.78;;;12.01;66.23
10606;BME280;5350;42.698;23.148;2023-10-08T01:12:12;94045.06;;;12.04;66.20
10606;BME280;5350;42.698;23.148;2023-10-08T01:14:42;94047.16;;;12.08;66.69
10606;BME280;5350;42.698;23.148;2023-10-08T01:17:12;94033.69;;;11.90;65.95
10606;BME280;5350;42.698;23.148;2023-10-08T01:19:41;94036.41;;;11.85;65.53
10606;BME280;5350;42.698;23.148;2023-10-08T01:22:12;94042.75;;;11.84;66.02
10606;BME280;5350;42.698;23.148;2023-10-08T01:24:43;94043.25;;;11.86;65.65
10606;BME280;5350;42.698;23.148;2023-10-08T01:27:11;94038.19;;;11.90;65.39
10606;BME280;5350;42.698;23.148;2023-10-08T01:29:38;94045.88;;;11.86;65.89
10606;BME280;5350;42.698;23.148;2023-10-08T01:32:05;94043.25;;;11.86;64.46
10606;BME280;5350;42.698;23.148;2023-10-08T01:34:36;94057.72;;;11.89;64.45
10606;BME280;5350;42.698;23.148;2023-10-08T01:37:04;94050.50;;;11.94;64.07
10606;BME280;5350;42.698;23.148;2023-10-08T01:39:37;94050.84;;;12.07;64.12
10606;BME280;5350;42.698;23.148;2023-10-08T01:42:05;94053.28;;;12.03;63.27
10606;BME280;5350;42.698;23.148;2023-10-08T01:44:40;94047.72;;;12.04;62.60
10606;BME280;5350;42.698;23.148;2023-10-08T01:47:07;94040.94;;;11.98;63.01
10606;BME280;5350;42.698;23.148;2023-10-08T01:49:36;94046.66;;;12.06;63.21
10606;BME280;5350;42.698;23.148;2023-10-08T01:52:05;94038.25;;;12.03;61.58
10606;BME280;5350;42.698;23.148;2023-10-08T01:54:39;94048.78;;;12.03;62.41
10606;BME280;5350;42.698;23.148;2023-10-08T01:57:06;94039.59;;;12.01;61.65
10606;BME280;5350;42.698;23.148;2023-10-08T01:59:35;94033.06;;;12.12;61.31
10606;BME280;5350;42.698;23.148;2023-10-08T02:02:03;94041.41;;;12.19;61.04
10606;BME280;5350;42.698;23.148;2023-10-08T02:04:31;94047.38;;;12.25;60.06
10606;BME280;5350;42.698;23.148;2023-10-08T02:06:58;94037.06;;;12.28;59.25
10606;BME280;5350;42.698;23.148;2023-10-08T02:09:26;94040.09;;;12.35;59.89
10606;BME280;5350;42.698;23.148;2023-10-08T02:11:54;94031.31;;;12.40;59.23
10606;BME280;5350;42.698;23.148;2023-10-08T02:14:21;94027.81;;;12.44;58.45
10606;BME280;5350;42.698;23.148;2023-10-08T02:16:48;94032.91;;;12.41;58.97
10606;BME280;5350;42.698;23.148;2023-10-08T02:19:20;94031.34;;;12.53;59.24
10606;BME280;5350;42.698;23.148;2023-10-08T02:21:52;94035.66;;;12.49;60.04
10606;BME280;5350;42.698;23.148;2023-10-08T02:24:20;94039.94;;;12.45;59.56
10606;BME280;5350;42.698;23.148;2023-10-08T02:26:47;94037.94;;;12.37;60.12
10606;BME280;5350;42.698;23.148;2023-10-08T02:29:15;94031.50;;;12.30;59.44
10606;BME280;5350;42.698;23.148;2023-10-08T02:31:42;94032.47;;;12.34;59.53
10606;BME280;5350;42.698;23.148;2023-10-08T02:34:10;94025.78;;;12.23;59.93
10606;BME280;5350;42.698;23.148;2023-10-08T02:36:38;94035.97;;;12.29;60.73
10606;BME280;5350;42.698;23.148;2023-10-08T02:39:06;94031.41;;;12.35;59.26
10606;BME280;5350;42.698;23.148;2023-10-08T02:41:39;94026.63;;;12.37;60.43
10606;BME280;5350;42.698;23.148;2023-10-08T02:44:07;94022.88;;;12.24;60.26
10606;BME280;5350;42.698;23.148;2023-10-08T02:46:39;94015.03;;;12.19;60.85
10606;BME280;5350;42.698;23.148;2023-10-08T02:49:06;94023.25;;;12.18;60.09
10606;BME280;5350;42.698;23.148;2023-10-08T02:51:36;94028.97;;;12.06;60.57
10606;BME280;5350;42.698;23.148;2023-10-08T02:54:03;94030.34;;;12.03;61.14
10606;BME280;5350;42.698;23.148;2023-10-08T02:56:31;94031.97;;;11.99;60.70
10606;BME280;5350;42.698;23.148;2023-10-08T02:58:58;94042.31;;;11.96;61.53
10606;BME280;5350;42.698;23.148;2023-10-08T03:01:25;94030.28;;;11.90;61.12
10606;BME280;5350;42.698;23.148;2023-10-08T03:03:53;94029.78;;;11.88;61.18
10606;BME280;5350;42.698;23.148;2023-10-08T03:06:33;94021.22;;;11.96;61.42
10606;BME280;5350;42.698;23.148;2023-10-08T03:09:01;94036.63;;;11.89;61.91
10606;BME280;5350;42.698;23.148;2023-10-08T03:11:29;94031.41;;;11.84;62.51
10606;BME280;5350;42.698;23.148;2023-10-08T03:13:56;94033.06;;;11.80;62.09
10606;BME280;5350;42.698;23.148;2023-10-08T03:16:24;94030.44;;;11.80;62.07
10606;BME280;5350;42.698;23.148;2023-10-08T03:18:55;94032.22;;;11.84;62.21
10606;BME280;5350;42.698;23.148;2023-10-08T03:21:22;94029.22;;;11.91;62.29
10606;BME280;5350;42.698;23.148;2023-10-08T03:24:09;94018.94;;;11.89;61.96
10606;BME280;5350;42.698;23.148;2023-10-08T03:26:49;94026.34;;;11.87;62.15
10606;BME280;5350;42.698;23.148;2023-10-08T03:29:21;94023.22;;;11.85;62.55
10606;BME280;5350;42.698;23.148;2023-10-08T03:31:55;94020.59;;;11.85;63.18
10606;BME280;5350;42.698;23.148;2023-10-08T03:34:25;94027.94;;;11.88;63.38
10606;BME280;5350;42.698;23.148;2023-10-08T03:36:59;94024.94;;;11.95;61.10
10606;BME280;5350;42.698;23.148;2023-10-08T03:39:31;94024.19;;;12.08;62.60
10606;BME280;5350;42.698;23.148;2023-10-08T03:42:19;94019.19;;;12.07;62.00
10606;BME280;5350;42.698;23.148;2023-10-08T03:44:46;94011.28;;;12.07;60.44
10606;BME280;5350;42.698;23.148;2023-10-08T03:47:16;94010.94;;;12.13;61.20
10606;BME280;5350;42.698;23.148;2023-10-08T03:49:45;94013.19;;;12.20;62.05
10606;BME280;5350;42.698;23.148;2023-10-08T03:52:16;94008.59;;;12.12;61.84
10606;BME280;5350;42.698;23.148;2023-10-08T03:54:42;94011.88;;;12.03;62.16
10606;BME280;5350;42.698;23.148;2023-10-08T03:57:14;94012.44;;;12.00;61.39
10606;BME280;5350;42.698;23.148;2023-10-08T04:00:00;94008.94;;;12.05;62.03
10606;BME280;5350;42.698;23.148;2023-10-08T04:02:36;94009.56;;;12.16;61.19
10606;BME280;5350;42.698;23.148;2023-10-08T04:05:08;94006.84;;;11.70;63.60
10606;BME280;5350;42.698;23.148;2023-10-08T04:07:51;93990.88;;;11.61;65.92
10606;BME280;5350;42.698;23.148;2023-10-08T04:10:49;93991.28;;;11.50;66.12
10606;BME280;5350;42.698;23.148;2023-10-08T04:13:30;93996.34;;;11.46;66.04
10606;BME280;5350;42.698;23.148;2023-10-08T04:15:57;93996.66;;;11.45;66.12
10606;BME280;5350;42.698;23.148;2023-10-08T04:18:23;93996.16;;;11.43;66.01
10606;BME280;5350;42.698;23.148;2023-10-08T04:20:52;93999.53;;;11.24;66.67
10606;BME280;5350;42.698;23.148;2023-10-08T04:23:38;93995.84;;;11.25;68.95
10606;BME280;5350;42.698;23.148;2023-10-08T04:26:05;93990.00;;;11.28;67.23
10606;BME280;5350;42.698;23.148;2023-10-08T04:28:32;93993.75;;;11.04;69.72
10606;BME280;5350;42.698;23.148;2023-10-08T04:31:00;93986.94;;;11.03;69.09
10606;BME280;5350;42.698;23.148;2023-10-08T04:33:41;93991.19;;;10.99;70.60
10606;BME280;5350;42.698;23.148;2023-10-08T04:36:10;93990.00;;;11.28;68.63
10606;BME280;5350;42.698;23.148;2023-10-08T04:38:43;93986.38;;;11.43;69.42
10606;BME280;5350;42.698;23.148;2023-10-08T04:41:12;93992.28;;;11.35;67.94
10606;BME280;5350;42.698;23.148;2023-10-08T04:43:42;93986.75;;;11.37;68.58
10606;BME280;5350;42.698;23.148;2023-10-08T04:46:09;93990.59;;;11.44;66.94
10606;BME280;5350;42.698;23.148;2023-10-08T04:48:45;93999.34;;;11.58;66.51
10606;BME280;5350;42.698;23.148;2023-10-08T04:51:13;94008.09;;;11.54;67.04
10606;BME280;5350;42.698;23.148;2023-10-08T04:53:40;93994.66;;;11.55;67.33
10606;BME280;5350;42.698;23.148;2023-10-08T04:56:11;93988.47;;;11.46;67.91
10606;BME280;5350;42.698;23.148;2023-10-08T04:58:42;93989.75;;;11.49;67.63
10606;BME280;5350;42.698;23.148;2023-10-08T05:01:12;93989.59;;;11.59;67.80
10606;BME280;5350;42.698;23.148;2023-10-08T05:03:47;93993.03;;;11.59;68.46
10606;BME280;5350;42.698;23.148;2023-10-08T05:06:50;94002.16;;;11.67;67.28
10606;BME280;5350;42.698;23.148;2023-10-08T05:09:26;94004.00;;;11.66;66.73
10606;BME280;5350;42.698;23.148;2023-10-08T05:12:05;94003.78;;;11.81;66.04
10606;BME280;5350;42.698;23.148;2023-10-08T05:14:36;93989.81;;;11.81;66.02
10606;BME280;5350;42.698;23.148;2023-10-08T05:17:11;94000.47;;;11.89;65.41
10606;BME280;5350;42.698;23.148;2023-10-08T05:19:48;94000.13;;;11.96;65.64
10606;BME280;5350;42.698;23.148;2023-10-08T05:22:23;93997.91;;;12.03;66.00
10606;BME280;5350;42.698;23.148;2023-10-08T05:25:10;94000.00;;;12.20;65.02
10606;BME280;5350;42.698;23.148;2023-10-08T05:27:52;93989.28;;;12.30;64.35
10606;BME280;5350;42.698;23.148;2023-10-08T05:30:34;93998.66;;;12.36;64.52
10606;BME280;5350;42.698;23.148;2023-10-08T05:33:04;93994.69;;;12.52;63.06
10606;BME280;5350;42.698;23.148;2023-10-08T05:35:51;94001.34;;;12.63;63.28
10606;BME280;5350;42.698;23.148;2023-10-08T05:38:30;94001.06;;;12.78;62.91
10606;BME280;5350;42.698;23.148;2023-10-08T05:41:14;94009.28;;;12.90;60.91
10606;BME280;5350;42.698;23.148;2023-10-08T05:43:53;94010.00;;;13.09;60.26
10606;BME280;5350;42.698;23.148;2023-10-08T05:46:37;94014.50;;;13.22;58.59
10606;BME280;5350;42.698;23.148;2023-10-08T05:49:16;94012.13;;;13.34;58.83
10606;BME280;5350;42.698;23.148;2023-10-08T05:52:03;94022.97;;;13.46;58.24
10606;BME280;5350;42.698;23.148;2023-10-08T05:54:49;94014.91;;;13.65;59.02
10606;BME280;5350;42.698;23.148;2023-10-08T05:57:40;94029.78;;;13.75;59.51
10606;BME280;5350;42.698;23.148;2023-10-08T06:00:15;94031.47;;;13.93;58.34
10606;BME280;5350;42.698;23.148;2023-10-08T06:03:00;94035.56;;;13.99;57.78
10606;BME280;5350;42.698;23.148;2023-10-08T06:05:58;94038.34;;;14.16;59.75
10606;BME280;5350;42.698;23.148;2023-10-08T06:08:48;94031.03;;;14.35;57.41
10606;BME280;5350;42.698;23.148;2023-10-08T06:11:35;94034.59;;;14.61;55.49
10606;BME280;5350;42.698;23.148;2023-10-08T06:14:10;94034.56;;;14.83;57.17
10606;BME280;5350;42.698;23.148;2023-10-08T06:16:42;94031.03;;;14.96;56.38
10606;BME280;5350;42.698;23.148;2023-10-08T06:19:10;94029.09;;;15.19;53.76
10606;BME280;5350;42.698;23.148;2023-10-08T06:21:36;94027.25;;;15.28;55.17
10606;BME280;5350;42.698;23.148;2023-10-08T06:24:05;94027.81;;;15.47;53.64
10606;BME280;5350;42.698;23.148;2023-10-08T06:26:36;94031.41;;;15.60;57.44
10606;BME280;5350;42.698;23.148;2023-10-08T06:29:09;94026.91;;;15.77;53.19
10606;BME280;5350;42.698;23.148;2023-10-08T06:31:45;94021.94;;;15.93;50.66
10606;BME280;5350;42.698;23.148;2023-10-08T06:34:17;94024.09;;;16.25;53.10
10606;BME280;5350;42.698;23.148;2023-10-08T06:36:47;94029.06;;;16.44;49.07
10606;BME280;5350;42.698;23.148;2023-10-08T06:39:15;94026.06;;;16.71;44.95
10606;BME280;5350;42.698;23.148;2023-10-08T06:41:46;94024.44;;;16.96;43.58
10606;BME280;5350;42.698;23.148;2023-10-08T06:44:12;94023.09;;;17.19;43.58
10606;BME280;5350;42.698;23.148;2023-10-08T06:46:41;94020.34;;;17.36;43.06
10606;BME280;5350;42.698;23.148;2023-10-08T06:49:09;94022.44;;;17.60;42.15
10606;BME280;5350;42.698;23.148;2023-10-08T06:51:38;94034.91;;;17.68;41.63
10606;BME280;5350;42.698;23.148;2023-10-08T06:54:07;94024.16;;;17.85;39.92
10606;BME280;5350;42.698;23.148;2023-10-08T06:56:36;94028.56;;;18.01;40.18
10606;BME280;5350;42.698;23.148;2023-10-08T06:59:05;94027.28;;;18.07;38.75
10606;BME280;5350;42.698;23.148;2023-10-08T07:01:34;94029.06;;;18.15;38.89
10606;BME280;5350;42.698;23.148;2023-10-08T07:04:05;94026.63;;;18.31;39.00
10606;BME280;5350;42.698;23.148;2023-10-08T07:06:37;94029.41;;;18.34;37.07
10606;BME280;5350;42.698;23.148;2023-10-08T07:09:05;94012.09;;;18.41;37.43
10606;BME280;5350;42.698;23.148;2023-10-08T07:11:47;94020.41;;;18.60;36.77
10606;BME280;5350;42.698;23.148;2023-10-08T07:14:16;94027.19;;;18.69;37.07
10606;BME280;5350;42.698;23.148;2023-10-08T07:16:43;94023.13;;;18.84;38.02
10606;BME280;5350;42.698;23.148;2023-10-08T07:19:10;94014.28;;;18.92;36.48
10606;BME280;5350;42.698;23.148;2023-10-08T07:21:44;94024.72;;;19.09;35.58
10606;BME280;5350;42.698;23.148;2023-10-08T07:24:11;94015.63;;;19.22;35.82
10606;BME280;5350;42.698;23.148;2023-10-08T07:26:41;94013.78;;;19.35;35.97
10606;BME280;5350;42.698;23.148;2023-10-08T07:29:13;94013.66;;;19.43;35.53
10606;BME280;5350;42.698;23.148;2023-10-08T07:31:44;94013.66;;;19.43;35.52
10606;BME280;5350;42.698;23.148;2023-10-08T07:34:15;94009.44;;;19.54;34.75
10606;BME280;5350;42.698;23.148;2023-10-08T07:36:52;94003.22;;;19.62;34.48
10606;BME280;5350;42.698;23.148;2023-10-08T07:39:21;94008.66;;;19.66;34.78
10606;BME280;5350;42.698;23.148;2023-10-08T07:42:00;94008.31;;;19.67;34.69
10606;BME280;5350;42.698;23.148;2023-10-08T07:44:27;94024.53;;;19.74;34.58
10606;BME280;5350;42.698;23.148;2023-10-08T07:46:56;93993.78;;;19.92;34.22
10606;BME280;5350;42.698;23.148;2023-10-08T07:49:24;93979.22;;;20.02;33.36
10606;BME280;5350;42.698;23.148;2023-10-08T07:51:51;93992.28;;;20.19;34.40
10606;BME280;5350;42.698;23.148;2023-10-08T07:54:18;93996.25;;;20.37;33.68
10606;BME280;5350;42.698;23.148;2023-10-08T07:56:46;93992.50;;;20.26;32.91
10606;BME280;5350;42.698;23.148;2023-10-08T07:59:14;93992.28;;;20.31;32.94
10606;BME280;5350;42.698;23.148;2023-10-08T08:01:42;93990.97;;;20.25;32.55
10606;BME280;5350;42.698;23.148;2023-10-08T08:04:11;93993.50;;;20.34;32.91
10606;BME280;5350;42.698;23.148;2023-10-08T08:06:47;93988.09;;;20.46;32.33
10606;BME280;5350;42.698;23.148;2023-10-08T08:09:15;93983.81;;;20.73;32.23
10606;BME280;5350;42.698;23.148;2023-10-08T08:11:45;93980.28;;;20.84;31.95
10606;BME280;5350;42.698;23.148;2023-10-08T08:14:12;93972.34;;;20.72;32.42
10606;BME280;5350;42.698;23.148;2023-10-08T08:16:43;93973.13;;;20.73;32.06
10606;BME280;5350;42.698;23.148;2023-10-08T08:19:14;93963.91;;;21.01;32.62
10606;BME280;5350;42.698;23.148;2023-10-08T08:21:42;93967.84;;;21.19;31.87
10606;BME280;5350;42.698;23.148;2023-10-08T08:24:12;93965.31;;;21.42;32.29
10606;BME280;5350;42.698;23.148;2023-10-08T08:26:39;93962.75;;;21.65;31.88
10606;BME280;5350;42.698;23.148;2023-10-08T08:29:10;93962.13;;;21.71;31.98
10606;BME280;5350;42.698;23.148;2023-10-08T08:31:40;93953.47;;;21.78;31.46
10606;BME280;5350;42.698;23.148;2023-10-08T08:34:11;93968.91;;;21.49;31.67
10606;BME280;5350;42.698;23.148;2023-10-08T08:36:46;93957.47;;;21.68;31.71
10606;BME280;5350;42.698;23.148;2023-10-08T08:39:14;93957.69;;;21.79;31.89
10606;BME280;5350;42.698;23.148;2023-10-08T08:41:58;93950.97;;;21.85;32.28
10606;BME280;5350;42.698;23.148;2023-10-08T08:44:27;93951.00;;;22.04;32.17
10606;BME280;5350;42.698;23.148;2023-10-08T08:46:58;93953.66;;;22.04;32.15
10606;BME280;5350;42.698;23.148;2023-10-08T08:49:25;93961.34;;;22.24;31.71
10606;BME280;5350;42.698;23.148;2023-10-08T08:51:55;93961.28;;;22.40;31.40
10606;BME280;5350;42.698;23.148;2023-10-08T08:54:26;93959.03;;;22.23;31.91
10606;BME280;5350;42.698;23.148;2023-10-08T08:56:56;93955.34;;;22.31;31.73
10606;BME280;5350;42.698;23.148;2023-10-08T08:59:23;93953.94;;;22.37;31.76
10606;BME280;5350;42.698;23.148;2023-10-08T09:01:51;93955.41;;;22.54;31.79
10606;BME280;5350;42.698;23.148;2023-10-08T09:04:27;93954.44;;;22.62;31.41
10606;BME280;5350;42.698;23.148;2023-10-08T09:06:56;93948.00;;;22.66;30.89
10606;BME280;5350;42.698;23.148;2023-10-08T09:09:23;93946.47;;;22.65;31.58
10606;BME280;5350;42.698;23.148;2023-10-08T09:11:57;93953.72;;;22.65;31.55
10606;BME280;5350;42.698;23.148;2023-10-08T09:14:25;93947.16;;;22.43;31.71
10606;BME280;5350;42.698;23.148;2023-10-08T09:16:53;93940.59;;;22.41;31.11
10606;BME280;5350;42.698;23.148;2023-10-08T09:19:20;93950.69;;;22.47;31.73
10606;BME280;5350;42.698;23.148;2023-10-08T09:22:04;93940.50;;;22.56;31.13
10606;BME280;5350;42.698;23.148;2023-10-08T09:24:31;93946.03;;;22.63;31.91
10606;BME280;5350;42.698;23.148;2023-10-08T09:27:02;93942.91;;;22.61;31.84
10606;BME280;5350;42.698;23.148;2023-10-08T09:29:29;93943.56;;;22.96;31.67
10606;BME280;5350;42.698;23.148;2023-10-08T09:31:57;93927.72;;;23.14;30.44
10606;BME280;5350;42.698;23.148;2023-10-08T09:34:27;93928.50;;;23.15;31.25
10606;BME280;5350;42.698;23.148;2023-10-08T09:36:56;93927.06;;;23.21;30.96
10606;BME280;5350;42.698;23.148;2023-10-08T09:39:27;93922.88;;;23.46;30.71
10606;BME280;5350;42.698;23.148;2023-10-08T09:41:56;93920.25;;;23.79;30.70
10606;BME280;5350;42.698;23.148;2023-10-08T09:44:24;93921.41;;;23.78;30.22
10606;BME280;5350;42.698;23.148;2023-10-08T09:46:53;93914.88;;;23.79;30.95
10606;BME280;5350;42.698;23.148;2023-10-08T09:49:28;93914.31;;;23.93;31.02
10606;BME280;5350;42.698;23.148;2023-10-08T09:51:59;93911.97;;;23.91;29.43
10606;BME280;5350;42.698;23.148;2023-10-08T09:54:28;93915.78;;;23.60;29.85
10606;BME280;5350;42.698;23.148;2023-10-08T09:56:59;93914.53;;;23.51;30.15
10606;BME280;5350;42.698;23.148;2023-10-08T09:59:29;93904.03;;;23.42;30.65
10606;BME280;5350;42.698;23.148;2023-10-08T10:01:56;93884.22;;;23.50;30.13
10606;BME280;5350;42.698;23.148;2023-10-08T10:04:25;93910.72;;;23.81;30.66
10606;BME280;5350;42.698;23.148;2023-10-08T10:06:54;93895.34;;;24.12;30.03
10606;BME280;5350;42.698;23.148;2023-10-08T10:09:24;93892.47;;;24.27;28.42
10606;BME280;5350;42.698;23.148;2023-10-08T10:11:54;93887.81;;;24.24;28.32
10606;BME280;5350;42.698;23.148;2023-10-08T10:14:23;93886.47;;;24.41;28.94
10606;BME280;5350;42.698;23.148;2023-10-08T10:17:08;93888.72;;;24.35;28.60
10606;BME280;5350;42.698;23.148;2023-10-08T10:19:36;93882.75;;;24.52;28.87
10606;BME280;5350;42.698;23.148;2023-10-08T10:22:03;93891.94;;;24.51;28.80
10606;BME280;5350;42.698;23.148;2023-10-08T10:24:33;93885.09;;;24.57;29.45
10606;BME280;5350;42.698;23.148;2023-10-08T10:27:14;93870.72;;;24.80;29.17
10606;BME280;5350;42.698;23.148;2023-10-08T10:29:41;93877.81;;;24.61;29.52
10606;BME280;5350;42.698;23.148;2023-10-08T10:32:11;93873.81;;;24.78;29.43
10606;BME280;5350;42.698;23.148;2023-10-08T10:34:39;93873.22;;;24.62;29.34
10606;BME280;5350;42.698;23.148;2023-10-08T10:37:06;93865.03;;;24.48;29.71
10606;BME280;5350;42.698;23.148;2023-10-08T10:39:36;93858.00;;;24.36;30.11
10606;BME280;5350;42.698;23.148;2023-10-08T10:42:07;93857.44;;;24.20;30.08
10606;BME280;5350;42.698;23.148;2023-10-08T10:44:47;93860.63;;;23.96;30.86
10606;BME280;5350;42.698;23.148;2023-10-08T10:47:16;93868.41;;;23.75;30.44
10606;BME280;5350;42.698;23.148;2023-10-08T10:50:08;93857.22;;;23.40;30.82
10606;BME280;5350;42.698;23.148;2023-10-08T10:52:52;93858.88;;;23.22;31.06
10606;BME280;5350;42.698;23.148;2023-10-08T10:55:19;93849.97;;;23.44;31.41
10606;BME280;5350;42.698;23.148;2023-10-08T10:57:57;93843.13;;;23.46;30.88
10606;BME280;5350;42.698;23.148;2023-10-08T11:00:31;93844.38;;;23.56;31.27
10606;BME280;5350;42.698;23.148;2023-10-08T11:03:24;93846.41;;;23.66;31.54
10606;BME280;5350;42.698;23.148;2023-10-08T11:05:53;93835.09;;;23.79;31.47
10606;BME280;5350;42.698;23.148;2023-10-08T11:08:21;93838.72;;;23.94;30.83
10606;BME280;5350;42.698;23.148;2023-10-08T11:10:49;93837.63;;;23.99;31.11
10606;BME280;5350;42.698;23.148;2023-10-08T11:13:19;93831.78;;;24.26;31.13
10606;BME280;5350;42.698;23.148;2023-10-08T11:15:49;93838.97;;;24.55;30.98
10606;BME280;5350;42.698;23.148;2023-10-08T11:18:18;93833.19;;;24.53;30.62
10606;BME280;5350;42.698;23.148;2023-10-08T11:20:46;93818.81;;;24.35;31.29
10606;BME280;5350;42.698;23.148;2023-10-08T11:23:34;93817.13;;;24.20;31.28
10606;BME280;5350;42.698;23.148;2023-10-08T11:26:02;93825.13;;;24.13;31.24
10606;BME280;5350;42.698;23.148;2023-10-08T11:28:30;93817.63;;;24.33;31.51
10606;BME280;5350;42.698;23.148;2023-10-08T11:31:01;93809.78;;;24.57;31.52
10606;BME280;5350;42.698;23.148;2023-10-08T11:33:34;93822.19;;;24.66;31.25
10606;BME280;5350;42.698;23.148;2023-10-08T11:36:02;93813.84;;;24.37;31.24
10606;BME280;5350;42.698;23.148;2023-10-08T11:38:41;93807.59;;;24.26;31.69
10606;BME280;5350;42.698;23.148;2023-10-08T11:41:12;93818.75;;;24.28;32.44
10606;BME280;5350;42.698;23.148;2023-10-08T11:43:50;93828.28;;;24.22;32.28
10606;BME280;5350;42.698;23.148;2023-10-08T11:46:23;93829.66;;;24.06;32.21
10606;BME280;5350;42.698;23.148;2023-10-08T11:48:53;93828.28;;;23.89;31.69
10606;BME280;5350;42.698;23.148;2023-10-08T11:51:22;93822.03;;;23.78;32.25
10606;BME280;5350;42.698;23.148;2023-10-08T11:53:49;93832.28;;;23.69;31.90
10606;BME280;5350;42.698;23.148;2023-10-08T11:56:16;93825.72;;;23.66;31.94
10606;BME280;5350;42.698;23.148;2023-10-08T11:58:46;93825.28;;;23.94;32.01
10606;BME280;5350;42.698;23.148;2023-10-08T12:01:13;93816.59;;;23.74;32.07
10606;BME280;5350;42.698;23.148;2023-10-08T12:03:42;93821.94;;;23.71;32.76
10606;BME280;5350;42.698;23.148;2023-10-08T12:06:10;93823.28;;;23.54;32.07
10606;BME280;5350;42.698;23.148;2023-10-08T12:08:41;93807.06;;;23.47;32.12
10606;BME280;5350;42.698;23.148;2023-10-08T12:11:11;93814.41;;;23.50;32.34
10606;BME280;5350;42.698;23.148;2023-10-08T12:13:38;93804.06;;;23.52;32.91
10606;BME280;5350;42.698;23.148;2023-10-08T12:16:12;93799.78;;;23.77;33.05
10606;BME280;5350;42.698;23.148;2023-10-08T12:18:45;93800.47;;;24.44;32.24
10606;BME280;5350;42.698;23.148;2023-10-08T12:21:15;93796.25;;;24.91;31.54
10606;BME280;5350;42.698;23.148;2023-10-08T12:23:43;93800.44;;;25.43;30.37
10606;BME280;5350;42.698;23.148;2023-10-08T12:26:11;93807.16;;;25.80;30.83
10606;BME280;5350;42.698;23.148;2023-10-08T12:28:41;93804.47;;;25.80;30.71
10606;BME280;5350;42.698;23.148;2023-10-08T12:31:11;93803.28;;;25.81;30.74
10606;BME280;5350;42.698;23.148;2023-10-08T12:33:37;93799.81;;;25.77;30.48
10606;BME280;5350;42.698;23.148;2023-10-08T12:36:06;93797.59;;;26.00;30.45
10606;BME280;5350;42.698;23.148;2023-10-08T12:38:37;93796.88;;;26.14;30.49
10606;BME280;5350;42.698;23.148;2023-10-08T12:41:04;93795.38;;;26.41;29.02
10606;BME280;5350;42.698;23.148;2023-10-08T12:43:37;93790.03;;;26.73;29.25
10606;BME280;5350;42.698;23.148;2023-10-08T12:46:08;93813.13;;;26.63;29.12
10606;BME280;5350;42.698;23.148;2023-10-08T12:48:36;93806.06;;;25.99;30.00
10606;BME280;5350;42.698;23.148;2023-10-08T12:51:03;93792.13;;;25.79;30.36
10606;BME280;5350;42.698;23.148;2023-10-08T12:53:33;93783.56;;;25.56;30.70
10606;BME280;5350;42.698;23.148;2023-10-08T12:56:02;93785.63;;;25.12;30.82
10606;BME280;5350;42.698;23.148;2023-10-08T12:58:32;93775.22;;;25.07;31.78
10606;BME280;5350;42.698;23.148;2023-10-08T13:01:05;93775.09;;;25.54;30.94
10606;BME280;5350;42.698;23.148;2023-10-08T13:03:34;93763.31;;;26.01;29.98
10606;BME280;5350;42.698;23.148;2023-10-08T13:06:07;93764.13;;;26.12;30.00
10606;BME280;5350;42.698;23.148;2023-10-08T13:08:37;93764.56;;;26.39;29.37
10606;BME280;5350;42.698;23.148;2023-10-08T13:11:05;93764.56;;;26.67;29.94
10606;BME280;5350;42.698;23.148;2023-10-08T13:13:31;93768.00;;;27.17;29.01
10606;BME280;5350;42.698;23.148;2023-10-08T13:15:59;93764.19;;;26.93;29.05
10606;BME280;5350;42.698;23.148;2023-10-08T13:18:30;93756.09;;;26.82;28.91
10606;BME280;5350;42.698;23.148;2023-10-08T13:20:58;93749.16;;;26.36;29.12
10606;BME280;5350;42.698;23.148;2023-10-08T13:23:26;93745.22;;;25.98;30.01